^^
Datos históricos de la estación: Murcia-Puente Tocinos
Diario Informe para Septiembre 11, 2019 Unidades:  Métrico    Ingés   Ambas
Diario Semanal Mensual Anual
  Máxima: Mínima: Promedio:
Temperatura: 21.8 °C 11.7 °C 16.3 °C
Punto de rocio: 5.7 °C 0.2 °C 3.3 °C
Humedad: 64% 24.4% 44%
Velocidad viento: 22.1km/h 2.9km/h 12.8km/h
Racha viento: 45.1km/h - -
Viento- - Oeste
Presión: 1015.3 hPa 1012.6 hPa -
Precipitación: 0.0 mm    
 
 
Tabla de datos para Septiembre 11, 2019
Hora Temperatura Punto de rocio Presión Viento Velocidad viento Racha viento Humedad Intensidad lluvia(por hora) Nubes
00:04 13.6 °C 5.7 °C 1013.7 hPa OSO 8.4 km/h 11.3 km/h 58.9% 0.0 mm
00:09 13.5 °C 5.6 °C 1013.7 hPa SSO 7.2 km/h 8 km/h 59% 0.0 mm
00:14 13.4 °C 5.6 °C 1013.7 hPa SSO 3.2 km/h 8 km/h 59% 0.0 mm
00:19 13.3 °C 5.7 °C 1013.8 hPa Este 3.2 km/h 11.1 km/h 59.8% 0.0 mm
00:24 12.9 °C 5.7 °C 1013.8 hPa ESE 3.2 km/h 11.3 km/h 61.3% 0.0 mm
00:29 12.5 °C 5.6 °C 1013.8 hPa ESE 4.5 km/h 11.3 km/h 62.8% 0.0 mm
00:34 12.3 °C 5.6 °C 1013.8 hPa SSE 6.5 km/h 11.1 km/h 63.3% 0.0 mm
00:39 12.4 °C 5.5 °C 1013.8 hPa Sur 6.2 km/h 11.3 km/h 62.8% 0.0 mm
00:44 12.6 °C 5.4 °C 1013.8 hPa Sur 5.8 km/h 9.7 km/h 61.7% 0.0 mm
00:49 12.7 °C 5.6 °C 1013.8 hPa SO 5.4 km/h 8.7 km/h 62% 0.0 mm
00:54 12.8 °C 5.6 °C 1013.8 hPa Oeste 4.7 km/h 11.1 km/h 61.7% 0.0 mm
00:59 12.8 °C 5.6 °C 1013.8 hPa OSO 6.1 km/h 18.5 km/h 61.7% 0.0 mm
01:04 12.8 °C 5.5 °C 1013.8 hPa OSO 7.6 km/h 20.9 km/h 61.2% 0.0 mm
01:09 12.9 °C 5.6 °C 1013.7 hPa OSO 8 km/h 20.9 km/h 61% 0.0 mm
01:14 12.9 °C 5.6 °C 1013.7 hPa OSO 8.7 km/h 12.9 km/h 61% 0.0 mm
01:19 12.9 °C 5.6 °C 1013.9 hPa OSO 7 km/h 13 km/h 61% 0.0 mm
01:24 12.8 °C 5.5 °C 1013.9 hPa ESE 4.6 km/h 16.1 km/h 61.5% 0.0 mm
01:29 12.4 °C 5.3 °C 1013.9 hPa SE 6.1 km/h 16.1 km/h 62% 0.0 mm
01:34 12.2 °C 5.2 °C 1014.0 hPa SE 8.4 km/h 18.5 km/h 62% 0.0 mm
01:39 12.3 °C 5.1 °C 1014.0 hPa SSE 9.8 km/h 20.4 km/h 61.4% 0.0 mm
01:44 12.5 °C 5 °C 1014.0 hPa Sur 11.9 km/h 20.9 km/h 60.3% 0.0 mm
01:49 12.7 °C 5.1 °C 1014.0 hPa OSO 11.3 km/h 19.3 km/h 60% 0.0 mm
01:54 12.8 °C 5.1 °C 1013.9 hPa OSO 10.3 km/h 18.5 km/h 59.2% 0.0 mm
01:59 13.1 °C 5.1 °C 1013.9 hPa OSO 10.3 km/h 19.3 km/h 58.5% 0.0 mm
02:04 13.1 °C 5 °C 1013.9 hPa Oeste 10.3 km/h 16.1 km/h 58% 0.0 mm
02:09 13.1 °C 5 °C 1013.9 hPa Oeste 9.3 km/h 13.7 km/h 58% 0.0 mm
02:14 13.2 °C 5.1 °C 1013.9 hPa OSO 7.6 km/h 14.5 km/h 58% 0.0 mm
02:19 13.2 °C 5.1 °C 1013.9 hPa OSO 5.7 km/h 8 km/h 58% 0.0 mm
02:24 13.1 °C 5 °C 1013.9 hPa SO 2.9 km/h 13 km/h 58% 0.0 mm
02:29 12.8 °C 4.9 °C 1013.9 hPa OSO 4.7 km/h 13.7 km/h 58.7% 0.0 mm
02:34 12.7 °C 4.9 °C 1013.9 hPa Oeste 7.6 km/h 14.5 km/h 59.4% 0.0 mm
02:39 12.6 °C 5.1 °C 1013.8 hPa Oeste 6.6 km/h 11.3 km/h 60.4% 0.0 mm
02:44 12.3 °C 5.2 °C 1013.8 hPa OSO 5 km/h 11.1 km/h 61.5% 0.0 mm
02:49 12.2 °C 5.3 °C 1013.8 hPa OSO 5.6 km/h 13 km/h 63% 0.0 mm
02:54 12.1 °C 5.5 °C 1013.6 hPa OSO 6.5 km/h 13 km/h 64% 0.0 mm
02:59 12 °C 5.4 °C 1013.6 hPa SSO 6.7 km/h 12.9 km/h 64% 0.0 mm
03:04 12 °C 5.4 °C 1013.6 hPa SE 6.9 km/h 9.7 km/h 64% 0.0 mm
03:09 12.1 °C 5.4 °C 1013.4 hPa SSE 6.2 km/h 9.5 km/h 63.4% 0.0 mm
03:14 12.2 °C 5.3 °C 1013.4 hPa ESE 5 km/h 9.7 km/h 62.8% 0.0 mm
03:19 12.3 °C 5.2 °C 1013.4 hPa SSE 4.9 km/h 9.5 km/h 61.9% 0.0 mm
03:24 12.4 °C 5.1 °C 1013.3 hPa SE 4.7 km/h 9.7 km/h 61.3% 0.0 mm
03:29 12.4 °C 5.1 °C 1013.3 hPa SSE 4.8 km/h 9.7 km/h 61% 0.0 mm
03:34 12.4 °C 5 °C 1013.3 hPa Sur 5 km/h 16.7 km/h 60.6% 0.0 mm
03:39 12.4 °C 4.8 °C 1013.2 hPa Sur 6.3 km/h 16.7 km/h 60% 0.0 mm
03:44 12.4 °C 4.8 °C 1013.2 hPa Sur 8.4 km/h 16.1 km/h 60% 0.0 mm
03:49 12.4 °C 4.8 °C 1013.3 hPa SSO 8.8 km/h 14.5 km/h 60% 0.0 mm
03:54 12.4 °C 4.8 °C 1013.3 hPa SSO 9.5 km/h 14.5 km/h 60% 0.0 mm
03:59 12.4 °C 4.9 °C 1013.3 hPa SO 9.1 km/h 14.8 km/h 60.2% 0.0 mm
04:04 12.4 °C 5.1 °C 1013.3 hPa SO 8.7 km/h 15.6 km/h 61% 0.0 mm
04:09 12.4 °C 5 °C 1013.3 hPa SO 9 km/h 20.4 km/h 60.5% 0.0 mm
04:14 12.6 °C 5 °C 1013.3 hPa OSO 9.5 km/h 20.9 km/h 60% 0.0 mm
04:19 12.7 °C 5.1 °C 1013.4 hPa OSO 9.5 km/h 19.3 km/h 59.9% 0.0 mm
04:24 12.7 °C 5.1 °C 1013.4 hPa OSO 9.5 km/h 14.5 km/h 60% 0.0 mm
04:29 12.7 °C 5.1 °C 1013.4 hPa OSO 8.1 km/h 13 km/h 60% 0.0 mm
04:34 12.6 °C 5.1 °C 1013.4 hPa SO 5.8 km/h 13.7 km/h 60% 0.0 mm
04:39 12.6 °C 5.1 °C 1013.3 hPa OSO 6.5 km/h 14.8 km/h 60% 0.0 mm
04:44 12.6 °C 5.1 °C 1013.3 hPa OSO 7.6 km/h 14.8 km/h 60% 0.0 mm
04:49 12.5 °C 5 °C 1013.5 hPa OSO 7.6 km/h 15.6 km/h 60% 0.0 mm
04:54 12.6 °C 5 °C 1013.5 hPa Oeste 7.6 km/h 18 km/h 60% 0.0 mm
04:59 12.6 °C 5.1 °C 1013.5 hPa Oeste 8.1 km/h 20.4 km/h 60% 0.0 mm
05:04 12.6 °C 5 °C 1013.5 hPa OSO 8.7 km/h 20.9 km/h 60% 0.0 mm
05:09 12.4 °C 4.9 °C 1013.4 hPa OSO 8 km/h 14.8 km/h 60% 0.0 mm
05:14 12.4 °C 4.8 °C 1013.4 hPa Oeste 6.9 km/h 14.8 km/h 60% 0.0 mm
05:19 12.4 °C 4.8 °C 1013.5 hPa OSO 6.5 km/h 14.5 km/h 60% 0.0 mm
05:24 12.4 °C 4.8 °C 1013.5 hPa OSO 5.8 km/h 13.7 km/h 60% 0.0 mm
05:29 12.4 °C 4.8 °C 1013.5 hPa OSO 6.5 km/h 14.5 km/h 60% 0.0 mm
05:34 12.4 °C 4.8 °C 1013.5 hPa SO 7.6 km/h 13.7 km/h 60% 0.0 mm
05:39 12.4 °C 4.8 °C 1013.5 hPa SO 6.6 km/h 18.5 km/h 60% 0.0 mm
05:44 12.5 °C 4.9 °C 1013.5 hPa SO 5 km/h 19.3 km/h 60% 0.0 mm
05:49 12.6 °C 4.8 °C 1013.6 hPa OSO 6.3 km/h 20.9 km/h 59.2% 0.0 mm
05:54 12.7 °C 4.9 °C 1013.6 hPa Oeste 8.4 km/h 25.9 km/h 59% 0.0 mm
05:59 12.7 °C 4.9 °C 1013.6 hPa Oeste 8.9 km/h 25.9 km/h 59% 0.0 mm
06:04 12.7 °C 4.9 °C 1013.6 hPa Oeste 9.5 km/h 24.1 km/h 59% 0.0 mm
06:09 12.6 °C 4.9 °C 1013.6 hPa OSO 10.4 km/h 22.5 km/h 59.2% 0.0 mm
06:14 12.6 °C 5 °C 1013.6 hPa OSO 11.9 km/h 28.2 km/h 60% 0.0 mm
06:19 12.5 °C 4.9 °C 1013.7 hPa Oeste 12.3 km/h 31.7 km/h 59.6% 0.0 mm
06:24 12.6 °C 4.8 °C 1013.7 hPa OSO 13 km/h 32.2 km/h 59% 0.0 mm
06:29 12.6 °C 4.8 °C 1013.7 hPa OSO 13 km/h 25.9 km/h 59.4% 0.0 mm
06:34 12.4 °C 4.9 °C 1013.8 hPa OSO 13 km/h 25.7 km/h 60% 0.0 mm
06:39 12.3 °C 4.8 °C 1013.8 hPa OSO 12.6 km/h 24.5 km/h 60% 0.0 mm
06:44 12.3 °C 4.9 °C 1013.8 hPa OSO 11.9 km/h 24.1 km/h 60.5% 0.0 mm
06:49 12.2 °C 4.9 °C 1014.0 hPa OSO 11.1 km/h 24.1 km/h 61% 0.0 mm
06:54 12.1 °C 4.9 °C 1014.0 hPa OSO 10 km/h 19.3 km/h 61.3% 0.0 mm
06:59 12 °C 4.9 °C 1014.0 hPa OSO 9.2 km/h 14.5 km/h 62% 0.0 mm
07:04 11.9 °C 4.8 °C 1014.1 hPa OSO 8.4 km/h 24.1 km/h 62% 0.0 mm
07:09 11.9 °C 4.8 °C 1014.1 hPa Oeste 9.4 km/h 25.9 km/h 62% 0.0 mm
07:14 11.9 °C 4.8 °C 1014.1 hPa Oeste 11.1 km/h 25.7 km/h 62% 0.0 mm
07:19 11.9 °C 4.9 °C 1014.1 hPa Oeste 11.9 km/h 24.1 km/h 62.3% 0.0 mm
07:24 11.8 °C 5 °C 1014.1 hPa Oeste 13 km/h 22.5 km/h 63% 0.0 mm
07:29 11.8 °C 5 °C 1014.1 hPa OSO 12 km/h 20.4 km/h 63% 0.0 mm
07:34 11.7 °C 4.9 °C 1014.3 hPa Oeste 10.3 km/h 20.9 km/h 63% 0.0 mm
07:39 11.7 °C 5 °C 1014.3 hPa Oeste 10.6 km/h 20.9 km/h 63.6% 0.0 mm
07:44 11.7 °C 4.9 °C 1014.3 hPa OSO 11.1 km/h 21.7 km/h 63.2% 0.0 mm
07:49 11.7 °C 4.9 °C 1014.4 hPa OSO 11.1 km/h 20.9 km/h 63% 0.0 mm
07:54 11.7 °C 4.9 °C 1014.4 hPa Oeste 11.1 km/h 20.4 km/h 63% 0.0 mm
07:59 11.7 °C 4.9 °C 1014.4 hPa Oeste 10.5 km/h 20.9 km/h 63% 0.0 mm
08:04 11.8 °C 4.9 °C 1014.5 hPa Oeste 10 km/h 32.3 km/h 62.9% 0.0 mm
08:09 12.1 °C 4.9 °C 1014.5 hPa Oeste 10.8 km/h 33.8 km/h 61.5% 0.0 mm
08:14 12.3 °C 5 °C 1014.5 hPa Oeste 12.2 km/h 29 km/h 61% 0.0 mm
08:19 12.3 °C 4.8 °C 1014.6 hPa OSO 12.8 km/h 30.9 km/h 60% 0.0 mm
08:24 12.5 °C 4.8 °C 1014.6 hPa Oeste 13.7 km/h 32.2 km/h 59.3% 0.0 mm
08:29 12.7 °C 4.9 °C 1014.6 hPa Oeste 13.8 km/h 32.2 km/h 59% 0.0 mm
08:34 12.7 °C 4.9 °C 1014.8 hPa OSO 14 km/h 27.4 km/h 58.8% 0.0 mm
08:39 12.8 °C 4.7 °C 1014.8 hPa OSO 12.8 km/h 20.9 km/h 58% 0.0 mm
08:44 12.9 °C 4.6 °C 1014.8 hPa OSO 11.1 km/h 20.9 km/h 57.2% 0.0 mm
08:49 13 °C 4.7 °C 1014.8 hPa OSO 11.1 km/h 24.1 km/h 57% 0.0 mm
08:54 13.1 °C 4.6 °C 1014.8 hPa Oeste 11.1 km/h 24.1 km/h 56.5% 0.0 mm
08:59 13.1 °C 4.8 °C 1014.8 hPa OSO 12 km/h 24.5 km/h 57% 0.0 mm
09:04 13.1 °C 4.6 °C 1014.9 hPa OSO 13 km/h 24.1 km/h 56.4% 0.0 mm
09:09 13.2 °C 4.8 °C 1014.9 hPa Oeste 12.7 km/h 22.5 km/h 57% 0.0 mm
09:14 13.3 °C 4.8 °C 1014.9 hPa OSO 12.2 km/h 20.4 km/h 56.4% 0.0 mm
09:19 13.3 °C 4.7 °C 1015.1 hPa Oeste 11.5 km/h 20.9 km/h 56% 0.0 mm
09:24 13.4 °C 4.8 °C 1015.1 hPa OSO 10.3 km/h 19.3 km/h 56% 0.0 mm
09:29 13.6 °C 4.9 °C 1015.1 hPa OSO 9.7 km/h 20.4 km/h 55.8% 0.0 mm
09:34 13.7 °C 4.9 °C 1015.1 hPa Oeste 8.7 km/h 20.9 km/h 55.5% 0.0 mm
09:39 13.7 °C 4.9 °C 1015.1 hPa ONO 8.7 km/h 20.4 km/h 55.4% 0.0 mm
09:44 13.7 °C 4.7 °C 1015.1 hPa ONO 8.7 km/h 30.6 km/h 54.6% 0.0 mm
09:49 13.9 °C 4.7 °C 1015.1 hPa Oeste 11 km/h 30.6 km/h 53.9% 0.0 mm
09:54 14.1 °C 4.6 °C 1015.1 hPa ONO 14.8 km/h 38.9 km/h 52.6% 0.0 mm
09:59 14.2 °C 4.4 °C 1015.1 hPa ONO 16.3 km/h 38.9 km/h 51.9% 0.0 mm
10:04 14.2 °C 4.4 °C 1015.1 hPa Oeste 18 km/h 38.6 km/h 51.4% 0.0 mm
10:09 14.2 °C 4.2 °C 1015.0 hPa Oeste 19.1 km/h 37 km/h 51% 0.0 mm
10:14 14.2 °C 4.2 °C 1015.0 hPa Oeste 20.9 km/h 37 km/h 51% 0.0 mm
10:19 14.2 °C 4.2 °C 1015.2 hPa Oeste 21.2 km/h 35.4 km/h 50.9% 0.0 mm
10:24 14.3 °C 4 °C 1015.2 hPa Oeste 21.7 km/h 35.4 km/h 50% 0.0 mm
10:29 14.3 °C 4.1 °C 1015.2 hPa Oeste 20.7 km/h 33.8 km/h 50.2% 0.0 mm
10:34 14.6 °C 4.2 °C 1015.2 hPa Oeste 19 km/h 29 km/h 50% 0.0 mm
10:39 14.7 °C 4.1 °C 1015.1 hPa Oeste 17.3 km/h 28.6 km/h 49% 0.0 mm
10:44 14.8 °C 4.2 °C 1015.1 hPa Oeste 14.8 km/h 29.6 km/h 49% 0.0 mm
10:49 15 °C 4.2 °C 1015.2 hPa Oeste 15.3 km/h 29 km/h 48.7% 0.0 mm
10:54 15 °C 4.1 °C 1015.2 hPa ONO 16.1 km/h 32.8 km/h 48.1% 0.0 mm
10:59 15.1 °C 4.1 °C 1015.2 hPa Oeste 17 km/h 32.2 km/h 48% 0.0 mm
11:04 15.2 °C 4.2 °C 1015.2 hPa Oeste 18 km/h 30.9 km/h 48% 0.0 mm
11:09 15.3 °C 4.3 °C 1015.2 hPa Oeste 17.1 km/h 30.6 km/h 48% 0.0 mm
11:14 15.3 °C 4.2 °C 1015.2 hPa Oeste 15.6 km/h 33.5 km/h 47.2% 0.0 mm
11:19 15.3 °C 4.3 °C 1015.2 hPa Oeste 15.6 km/h 33.8 km/h 47.9% 0.0 mm
11:24 15.6 °C 4.2 °C 1015.2 hPa ONO 15.6 km/h 33.5 km/h 46.6% 0.0 mm
11:29 15.6 °C 4 °C 1015.2 hPa ONO 16.7 km/h 38.9 km/h 46% 0.0 mm
11:34 15.6 °C 4 °C 1015.3 hPa ONO 18.4 km/h 38.6 km/h 46% 0.0 mm
11:39 15.7 °C 4.1 °C 1015.3 hPa NO 19 km/h 35.4 km/h 45.9% 0.0 mm
11:44 15.9 °C 3.9 °C 1015.3 hPa ONO 20.1 km/h 35.9 km/h 45% 0.0 mm
11:49 15.9 °C 3.7 °C 1015.3 hPa ONO 20.1 km/h 35.4 km/h 44% 0.0 mm
11:54 15.9 °C 3.7 °C 1015.2 hPa ONO 20.1 km/h 35.4 km/h 44% 0.0 mm
11:59 16.3 °C 4 °C 1015.2 hPa NO 20 km/h 32.2 km/h 44.1% 0.0 mm
12:04 16.4 °C 3.9 °C 1015.2 hPa Oeste 19.8 km/h 29.8 km/h 43.2% 0.0 mm
12:09 16.6 °C 3.7 °C 1015.1 hPa Oeste 18.5 km/h 30.6 km/h 42.3% 0.0 mm
12:14 16.8 °C 3.7 °C 1015.1 hPa Oeste 16.4 km/h 30.6 km/h 41.8% 0.0 mm
12:19 16.8 °C 3.6 °C 1015.1 hPa ONO 16.4 km/h 37 km/h 41.5% 0.0 mm
12:24 16.8 °C 3.6 °C 1015.0 hPa ONO 16.4 km/h 37 km/h 41.2% 0.0 mm
12:29 17.1 °C 3.7 °C 1015.0 hPa Oeste 17.2 km/h 33.8 km/h 41% 0.0 mm
12:34 17.2 °C 3.9 °C 1015.0 hPa ONO 18.4 km/h 30.6 km/h 41% 0.0 mm
12:39 17.4 °C 3.5 °C 1014.8 hPa ONO 17.5 km/h 42.6 km/h 39.7% 0.0 mm
12:44 17.3 °C 3.4 °C 1014.8 hPa ONO 16.1 km/h 41.8 km/h 39.4% 0.0 mm
12:49 17.4 °C 3.2 °C 1014.8 hPa ONO 18.4 km/h 35.9 km/h 38.7% 0.0 mm
12:54 17.3 °C 3.3 °C 1014.8 hPa ONO 22.1 km/h 35.4 km/h 39.2% 0.0 mm
12:59 17.3 °C 3.6 °C 1014.8 hPa Oeste 22.1 km/h 44.4 km/h 39.9% 0.0 mm
13:04 17.7 °C 3.9 °C 1014.8 hPa ONO 22.1 km/h 45.1 km/h 40% 0.0 mm
13:09 18 °C 3.9 °C 1014.6 hPa ONO 19.8 km/h 33.3 km/h 39% 0.0 mm
13:14 18.2 °C 3.5 °C 1014.6 hPa ONO 16.4 km/h 37 km/h 37.9% 0.0 mm
13:19 18.1 °C 3.5 °C 1014.6 hPa ONO 17.1 km/h 37 km/h 38% 0.0 mm
13:24 18.1 °C 3.3 °C 1014.4 hPa ONO 18 km/h 38.9 km/h 37.3% 0.0 mm
13:29 18.2 °C 3.2 °C 1014.4 hPa ONO 18.2 km/h 38.9 km/h 37% 0.0 mm
13:34 18.3 °C 3.3 °C 1014.4 hPa ONO 18.4 km/h 35.9 km/h 36.9% 0.0 mm
13:39 18.3 °C 3.4 °C 1014.3 hPa ONO 18.6 km/h 35.4 km/h 37% 0.0 mm
13:44 18.5 °C 3.5 °C 1014.3 hPa ONO 19 km/h 35.2 km/h 37% 0.0 mm
13:49 18.6 °C 3.5 °C 1014.3 hPa ONO 19 km/h 35.4 km/h 36.7% 0.0 mm
13:54 18.7 °C 3.4 °C 1014.1 hPa ONO 19 km/h 37 km/h 36.1% 0.0 mm
13:59 18.8 °C 3.1 °C 1014.1 hPa NO 19.4 km/h 37 km/h 35.1% 0.0 mm
14:04 19.1 °C 3.5 °C 1014.1 hPa ONO 19.8 km/h 34.3 km/h 35.7% 0.0 mm
14:09 19.5 °C 3.6 °C 1014.0 hPa ONO 17.3 km/h 33.8 km/h 34.9% 0.0 mm
14:14 19.7 °C 2.9 °C 1014.0 hPa ONO 13.7 km/h 32.2 km/h 32.9% 0.0 mm
14:19 19.6 °C 2.9 °C 1014.0 hPa NO 14.8 km/h 33.3 km/h 33% 0.0 mm
14:24 19.6 °C 2.9 °C 1014.0 hPa NO 16.4 km/h 33.8 km/h 33% 0.0 mm
14:29 19.6 °C 2.9 °C 1014.0 hPa Oeste 16.7 km/h 33.8 km/h 33% 0.0 mm
14:34 19.6 °C 2.5 °C 1014.0 hPa Oeste 17.2 km/h 40.7 km/h 32% 0.0 mm
14:39 19.7 °C 2.7 °C 1013.8 hPa NO 18.2 km/h 40.7 km/h 32.5% 0.0 mm
14:44 19.7 °C 2.7 °C 1013.8 hPa ONO 19.8 km/h 37 km/h 32.4% 0.0 mm
14:49 19.7 °C 2.6 °C 1013.8 hPa Oeste 19.8 km/h 37.8 km/h 32% 0.0 mm
14:54 19.9 °C 2.7 °C 1013.7 hPa ONO 19.8 km/h 37 km/h 32% 0.0 mm
14:59 20.3 °C 2.5 °C 1013.7 hPa ONO 18.2 km/h 30.6 km/h 30.8% 0.0 mm
15:04 20.2 °C 2.3 °C 1013.7 hPa ONO 16.4 km/h 38.9 km/h 30.5% 0.0 mm
15:09 20.3 °C 2.5 °C 1013.7 hPa ONO 16.7 km/h 38.6 km/h 30.8% 0.0 mm
15:14 20.4 °C 2 °C 1013.7 hPa Oeste 17.2 km/h 33.8 km/h 29.5% 0.0 mm
15:19 20.5 °C 2.1 °C 1013.7 hPa ONO 16.9 km/h 35.9 km/h 29.6% 0.0 mm
15:24 20.5 °C 1.7 °C 1013.5 hPa ONO 16.4 km/h 35.9 km/h 28.9% 0.0 mm
15:29 20.5 °C 1.6 °C 1013.5 hPa Oeste 17.4 km/h 35.4 km/h 28.5% 0.0 mm
15:34 20.6 °C 1.4 °C 1013.5 hPa OSO 19 km/h 25.9 km/h 27.9% 0.0 mm
15:39 20.7 °C 1.5 °C 1013.4 hPa ONO 17.9 km/h 44.9 km/h 28% 0.0 mm
15:44 20.8 °C 1.5 °C 1013.4 hPa ONO 16.1 km/h 45.1 km/h 27.8% 0.0 mm
15:49 20.9 °C 1.7 °C 1013.4 hPa ONO 15.2 km/h 31.7 km/h 28.1% 0.0 mm
15:54 20.9 °C 1.4 °C 1013.3 hPa NO 13.7 km/h 32.2 km/h 27.4% 0.0 mm
15:59 20.9 °C 1.5 °C 1013.3 hPa NO 15 km/h 29.6 km/h 27.7% 0.0 mm
16:04 20.8 °C 1.6 °C 1013.3 hPa ONO 16.4 km/h 32.3 km/h 28% 0.0 mm
16:09 20.8 °C 1.3 °C 1013.1 hPa ONO 17 km/h 33.8 km/h 27.4% 0.0 mm
16:14 20.9 °C 0.9 °C 1013.1 hPa ONO 18 km/h 33.8 km/h 26.6% 0.0 mm
16:19 20.8 °C 1.3 °C 1013.1 hPa ONO 18.2 km/h 34.6 km/h 27.4% 0.0 mm
16:24 20.9 °C 1.6 °C 1013.1 hPa NO 18.4 km/h 35.4 km/h 27.8% 0.0 mm
16:29 21.1 °C 1.8 °C 1013.1 hPa ONO 17.5 km/h 33.5 km/h 27.8% 0.0 mm
16:34 21.1 °C 1.5 °C 1013.1 hPa ONO 16.1 km/h 33.8 km/h 27.2% 0.0 mm
16:39 21.1 °C 1.2 °C 1012.9 hPa Oeste 17 km/h 35.2 km/h 26.6% 0.0 mm
16:44 21.2 °C 0.6 °C 1012.9 hPa ONO 18.4 km/h 35.4 km/h 25.4% 0.0 mm
16:49 21.3 °C 1.1 °C 1012.9 hPa Oeste 18.9 km/h 35.4 km/h 26.1% 0.0 mm
16:54 21.5 °C 1.9 °C 1012.8 hPa Oeste 19.8 km/h 38.9 km/h 27.5% 0.0 mm
16:59 21.1 °C 1.9 °C 1012.8 hPa ONO 20.9 km/h 38.9 km/h 28% 0.0 mm
17:04 21.1 °C 1.4 °C 1012.9 hPa Oeste 22.1 km/h 38.6 km/h 27.2% 0.0 mm
17:09 21.2 °C 1.4 °C 1012.9 hPa ONO 20.2 km/h 37 km/h 27.1% 0.0 mm
17:14 21.3 °C 1.7 °C 1012.9 hPa ONO 17.2 km/h 40.7 km/h 27.2% 0.0 mm
17:19 21.4 °C 1.1 °C 1012.9 hPa Oeste 17.2 km/h 40.2 km/h 26.1% 0.0 mm
17:24 21.3 °C 1 °C 1012.9 hPa Oeste 17.2 km/h 30.6 km/h 26% 0.0 mm
17:29 21.3 °C 1 °C 1012.9 hPa OSO 16.8 km/h 30.6 km/h 26.1% 0.0 mm
17:34 21.5 °C 1.8 °C 1012.9 hPa NO 16.1 km/h 27.8 km/h 27.2% 0.0 mm
17:39 21.5 °C 2 °C 1012.7 hPa NO 15.3 km/h 37 km/h 27.6% 0.0 mm
17:44 21.4 °C 1.6 °C 1012.7 hPa NO 14 km/h 37 km/h 27% 0.0 mm
17:49 21.4 °C 1.6 °C 1012.7 hPa NO 15.3 km/h 32.2 km/h 27% 0.0 mm
17:54 21.6 °C 1.5 °C 1012.6 hPa NO 17.2 km/h 30.6 km/h 26.4% 0.0 mm
17:59 21.6 °C 1.7 °C 1012.6 hPa ONO 16 km/h 33.3 km/h 26.9% 0.0 mm
18:04 21.6 °C 1.6 °C 1012.7 hPa NO 14.8 km/h 33.8 km/h 26.7% 0.0 mm
18:09 21.4 °C 1.6 °C 1012.7 hPa ONO 14.8 km/h 29 km/h 26.9% 0.0 mm
18:14 21.6 °C 1.3 °C 1012.7 hPa ONO 14.8 km/h 29.8 km/h 26.1% 0.0 mm
18:19 21.7 °C 1.3 °C 1012.7 hPa NO 14.8 km/h 30.6 km/h 26% 0.0 mm
18:24 21.7 °C 1.3 °C 1012.7 hPa ONO 14.8 km/h 29 km/h 26% 0.0 mm
18:29 21.7 °C 0.9 °C 1012.7 hPa Oeste 15.3 km/h 29.8 km/h 25.2% 0.0 mm
18:34 21.8 °C 0.6 °C 1012.7 hPa ONO 16.1 km/h 37 km/h 24.6% 0.0 mm
18:39 21.7 °C 0.5 °C 1012.7 hPa NO 16.8 km/h 37 km/h 24.5% 0.0 mm
18:44 21.5 °C 0.3 °C 1012.7 hPa ONO 18 km/h 33.8 km/h 24.4% 0.0 mm
18:49 21.6 °C 0.7 °C 1012.7 hPa ONO 17.4 km/h 33.8 km/h 25% 0.0 mm
18:54 21.6 °C 0.7 °C 1012.7 hPa ONO 16.4 km/h 30.6 km/h 25% 0.0 mm
18:59 21.6 °C 0.8 °C 1012.7 hPa ONO 16 km/h 28.6 km/h 25.1% 0.0 mm
19:04 21.4 °C 1.1 °C 1012.7 hPa NO 15.6 km/h 31.7 km/h 26% 0.0 mm
19:09 21.4 °C 1.1 °C 1012.7 hPa ONO 15.9 km/h 32.2 km/h 26% 0.0 mm
19:14 21.4 °C 1.1 °C 1012.7 hPa NO 16.4 km/h 27.4 km/h 26% 0.0 mm
19:19 21.3 °C 0.5 °C 1012.7 hPa ONO 16.7 km/h 30.6 km/h 25% 0.0 mm
19:24 21.3 °C 0.5 °C 1012.7 hPa ONO 17.2 km/h 30.6 km/h 25% 0.0 mm
19:29 21.2 °C 0.4 °C 1012.7 hPa NO 16.9 km/h 29.8 km/h 25% 0.0 mm
19:34 21.2 °C 0.4 °C 1012.7 hPa NO 16.4 km/h 30.6 km/h 25% 0.0 mm
19:39 21.2 °C 0.3 °C 1012.7 hPa ONO 17.1 km/h 35.2 km/h 25% 0.0 mm
19:44 21 °C 0.2 °C 1012.7 hPa NO 18 km/h 35.4 km/h 25% 0.0 mm
19:49 20.9 °C 0.3 °C 1012.7 hPa ONO 18.7 km/h 33.3 km/h 25.4% 0.0 mm
19:54 20.8 °C 0.6 °C 1012.6 hPa ONO 19.8 km/h 33.8 km/h 26% 0.0 mm
19:59 20.8 °C 0.8 °C 1012.6 hPa NO 17.9 km/h 24.5 km/h 26.4% 0.0 mm
20:04 20.8 °C 1.1 °C 1012.6 hPa ONO 15.6 km/h 24.1 km/h 27% 0.0 mm
20:09 20.8 °C 1.1 °C 1012.6 hPa ONO 14.3 km/h 26.2 km/h 27% 0.0 mm
20:14 20.6 °C 1.2 °C 1012.6 hPa ONO 12.2 km/h 26.2 km/h 27.5% 0.0 mm
20:19 20.6 °C 1.4 °C 1012.8 hPa ONO 13.2 km/h 25.7 km/h 28% 0.0 mm
20:24 20.4 °C 1.3 °C 1012.8 hPa NO 14.8 km/h 28.2 km/h 28% 0.0 mm
20:29 20.3 °C 1.3 °C 1012.8 hPa NO 14.8 km/h 28.6 km/h 28.3% 0.0 mm
20:34 20.2 °C 1.4 °C 1013.0 hPa ONO 14.8 km/h 30.9 km/h 28.6% 0.0 mm
20:39 20.1 °C 1.5 °C 1013.0 hPa ONO 14.3 km/h 30.6 km/h 29% 0.0 mm
20:44 19.9 °C 1.3 °C 1013.0 hPa NO 13.7 km/h 28.2 km/h 29% 0.0 mm
20:49 19.8 °C 1.7 °C 1013.2 hPa NO 15.3 km/h 27.8 km/h 29.8% 0.0 mm
20:54 19.7 °C 1.6 °C 1013.2 hPa ONO 18 km/h 31.7 km/h 30% 0.0 mm
20:59 19.6 °C 1.5 °C 1013.2 hPa ONO 16.9 km/h 32.2 km/h 30% 0.0 mm
21:04 19.4 °C 1.4 °C 1013.5 hPa ONO 15.6 km/h 28.2 km/h 30% 0.0 mm
21:09 19.4 °C 1.1 °C 1013.5 hPa ONO 15.8 km/h 31.7 km/h 29.4% 0.0 mm
21:14 19.3 °C 1.1 °C 1013.5 hPa ONO 16.1 km/h 32.2 km/h 29.6% 0.0 mm
21:19 19.3 °C 1.2 °C 1013.7 hPa ONO 16.2 km/h 25.7 km/h 30% 0.0 mm
21:24 19.2 °C 1.2 °C 1013.7 hPa ONO 16.4 km/h 22.5 km/h 30% 0.0 mm
21:29 19.1 °C 1.1 °C 1013.7 hPa ONO 15.1 km/h 22.5 km/h 30% 0.0 mm
21:34 19 °C 1 °C 1013.8 hPa ONO 13 km/h 22.5 km/h 30% 0.0 mm
21:39 18.9 °C 0.9 °C 1013.8 hPa ONO 12.7 km/h 22.5 km/h 30% 0.0 mm
21:44 18.8 °C 1.2 °C 1013.8 hPa ONO 12.2 km/h 19.3 km/h 30.8% 0.0 mm
21:49 18.7 °C 1.2 °C 1013.9 hPa ONO 11.4 km/h 19.3 km/h 31% 0.0 mm
21:54 18.6 °C 1.1 °C 1013.9 hPa ONO 10 km/h 16.1 km/h 31% 0.0 mm
21:59 18.4 °C 1 °C 1013.9 hPa ONO 8.9 km/h 12.9 km/h 31% 0.0 mm
22:04 18.3 °C 1.3 °C 1014.0 hPa ONO 7.6 km/h 11.3 km/h 31.9% 0.0 mm
22:09 18.3 °C 1.3 °C 1014.0 hPa ONO 6.6 km/h 11.3 km/h 32% 0.0 mm
22:14 18.2 °C 1.2 °C 1014.0 hPa ONO 5 km/h 9.7 km/h 32% 0.0 mm
22:19 18.2 °C 1.2 °C 1014.1 hPa Oeste 4.2 km/h 8 km/h 32% 0.0 mm
22:24 18.1 °C 1.1 °C 1014.1 hPa OSO 2.9 km/h 7.4 km/h 32% 0.0 mm
22:29 17.9 °C 1 °C 1014.1 hPa SO 3.6 km/h 9.5 km/h 32% 0.0 mm
22:34 17.9 °C 0.9 °C 1014.2 hPa SO 4.7 km/h 9.7 km/h 32% 0.0 mm
22:39 18 °C 1 °C 1014.2 hPa SSO 4.8 km/h 10 km/h 32% 0.0 mm
22:44 18 °C 1.1 °C 1014.2 hPa SO 5 km/h 10 km/h 32% 0.0 mm
22:49 18 °C 1.3 °C 1014.4 hPa SSO 5.3 km/h 10 km/h 32.5% 0.0 mm
22:54 17.9 °C 1.3 °C 1014.4 hPa SSO 5.8 km/h 12.2 km/h 32.9% 0.0 mm
22:59 17.8 °C 0.9 °C 1014.4 hPa SSO 6.6 km/h 14 km/h 32% 0.0 mm
23:04 17.8 °C 0.9 °C 1014.4 hPa Sur 7.6 km/h 19 km/h 32% 0.0 mm
23:09 17.7 °C 0.9 °C 1014.4 hPa SSO 8.9 km/h 22.2 km/h 32.1% 0.0 mm
23:14 17.7 °C 0.9 °C 1014.4 hPa Sur 11.1 km/h 22.5 km/h 32.3% 0.0 mm
23:19 17.6 °C 1.1 °C 1014.6 hPa Sur 12.2 km/h 22.5 km/h 33% 0.0 mm
23:24 17.6 °C 1.1 °C 1014.6 hPa Sur 14 km/h 20.9 km/h 33% 0.0 mm
23:29 17.6 °C 1.1 °C 1014.6 hPa SSO 13.2 km/h 19.3 km/h 33% 0.0 mm
23:34 17.5 °C 1 °C 1014.7 hPa SSO 11.9 km/h 17.7 km/h 33% 0.0 mm
23:39 17.4 °C 0.9 °C 1014.7 hPa SO 9.6 km/h 12.9 km/h 33% 0.0 mm
23:44 17.4 °C 1.2 °C 1014.7 hPa SSO 5.8 km/h 9.7 km/h 33.6% 0.0 mm
23:49 17.2 °C 1.4 °C 1014.8 hPa Oeste 4.7 km/h 8 km/h 34.6% 0.0 mm
23:54 16.9 °C 1.3 °C 1014.8 hPa SO 2.9 km/h 8 km/h 35% 0.0 mm
23:59 16.8 °C 1.2 °C 1014.8 hPa OSO 3.3 km/h 9.5 km/h 35% 0.0 mm
Murcia-Puente Tocinos, España
Compliments of Weather Underground - 3 mb

La estación de MeteoMurcia.com, publica sus datos en los siguientes proyectos:

Weather Underground PWS IMURCIAP2 Meteoclimatic www.awekas.at

W3Counter
Web Analytics